sensor_id;sensor_type;location;lat;lon;timestamp;temperature;humidity
23769;DHT22;12064;50.890;5.424;2023-02-28T00:02:20;21.10;68.00
23769;DHT22;12064;50.890;5.424;2023-02-28T00:11:12;21.00;68.50
23769;DHT22;12064;50.890;5.424;2023-02-28T00:20:05;21.10;68.20
23769;DHT22;12064;50.890;5.424;2023-02-28T00:29:02;21.30;67.10
23769;DHT22;12064;50.890;5.424;2023-02-28T00:37:52;22.30;64.40
23769;DHT22;12064;50.890;5.424;2023-02-28T00:46:43;21.30;66.40
23769;DHT22;12064;50.890;5.424;2023-02-28T00:55:34;21.10;67.40
23769;DHT22;12064;50.890;5.424;2023-02-28T01:04:25;20.90;68.10
23769;DHT22;12064;50.890;5.424;2023-02-28T01:13:16;20.80;68.20
23769;DHT22;12064;50.890;5.424;2023-02-28T01:22:10;20.80;68.10
23769;DHT22;12064;50.890;5.424;2023-02-28T01:31:01;21.00;67.30
23769;DHT22;12064;50.890;5.424;2023-02-28T01:39:51;21.70;65.10
23769;DHT22;12064;50.890;5.424;2023-02-28T01:49:11;21.10;66.70
23769;DHT22;12064;50.890;5.424;2023-02-28T01:58:05;20.80;67.90
23769;DHT22;12064;50.890;5.424;2023-02-28T02:06:58;20.70;68.10
23769;DHT22;12064;50.890;5.424;2023-02-28T02:43:45;21.20;66.00
23769;DHT22;12064;50.890;5.424;2023-02-28T02:52:39;20.90;67.00
23769;DHT22;12064;50.890;5.424;2023-02-28T03:01:32;20.70;67.70
23769;DHT22;12064;50.890;5.424;2023-02-28T03:10:36;20.80;67.50
23769;DHT22;12064;50.890;5.424;2023-02-28T03:28:43;20.90;66.90
23769;DHT22;12064;50.890;5.424;2023-02-28T03:37:40;20.90;66.60
23769;DHT22;12064;50.890;5.424;2023-02-28T03:46:36;20.70;67.40
23769;DHT22;12064;50.890;5.424;2023-02-28T03:55:33;20.60;67.70
23769;DHT22;12064;50.890;5.424;2023-02-28T04:04:25;20.50;68.00
23769;DHT22;12064;50.890;5.424;2023-02-28T04:13:16;20.50;67.90
23769;DHT22;12064;50.890;5.424;2023-02-28T04:22:09;20.60;67.70
23769;DHT22;12064;50.890;5.424;2023-02-28T04:31:03;20.60;67.00
23769;DHT22;12064;50.890;5.424;2023-02-28T04:39:54;20.60;67.30
23769;DHT22;12064;50.890;5.424;2023-02-28T04:48:47;20.60;67.70
23769;DHT22;12064;50.890;5.424;2023-02-28T04:57:38;20.70;68.20
23769;DHT22;12064;50.890;5.424;2023-02-28T05:06:30;21.10;66.40
23769;DHT22;12064;50.890;5.424;2023-02-28T05:15:22;21.40;65.70
23769;DHT22;12064;50.890;5.424;2023-02-28T05:24:13;21.50;65.50
23769;DHT22;12064;50.890;5.424;2023-02-28T05:33:03;21.40;65.70
23769;DHT22;12064;50.890;5.424;2023-02-28T05:41:56;21.40;65.80
23769;DHT22;12064;50.890;5.424;2023-02-28T05:50:47;21.70;65.30
23769;DHT22;12064;50.890;5.424;2023-02-28T05:59:39;21.60;65.50
23769;DHT22;12064;50.890;5.424;2023-02-28T06:08:32;21.40;65.90
23769;DHT22;12064;50.890;5.424;2023-02-28T06:17:23;21.20;66.40
23769;DHT22;12064;50.890;5.424;2023-02-28T06:26:16;21.20;66.40
23769;DHT22;12064;50.890;5.424;2023-02-28T06:35:10;21.00;66.50
23769;DHT22;12064;50.890;5.424;2023-02-28T06:44:23;21.10;66.30
23769;DHT22;12064;50.890;5.424;2023-02-28T06:53:14;21.20;64.90
23769;DHT22;12064;50.890;5.424;2023-02-28T07:02:05;21.10;64.30
23769;DHT22;12064;50.890;5.424;2023-02-28T07:10:57;20.90;64.80
23769;DHT22;12064;50.890;5.424;2023-02-28T07:19:50;21.00;64.60
23769;DHT22;12064;50.890;5.424;2023-02-28T07:28:42;21.20;64.10
23769;DHT22;12064;50.890;5.424;2023-02-28T07:37:37;21.10;64.30
23769;DHT22;12064;50.890;5.424;2023-02-28T07:46:29;21.00;64.50
23769;DHT22;12064;50.890;5.424;2023-02-28T07:55:25;20.90;64.60
23769;DHT22;12064;50.890;5.424;2023-02-28T08:04:19;21.10;64.00
23769;DHT22;12064;50.890;5.424;2023-02-28T08:13:09;21.10;63.70
23769;DHT22;12064;50.890;5.424;2023-02-28T08:22:00;21.00;63.80
23769;DHT22;12064;50.890;5.424;2023-02-28T08:30:52;20.90;63.70
23769;DHT22;12064;50.890;5.424;2023-02-28T08:39:42;21.00;63.10
23769;DHT22;12064;50.890;5.424;2023-02-28T08:48:35;21.20;62.90
23769;DHT22;12064;50.890;5.424;2023-02-28T08:57:28;21.70;60.70
23769;DHT22;12064;50.890;5.424;2023-02-28T09:06:21;22.50;58.60
23769;DHT22;12064;50.890;5.424;2023-02-28T09:15:13;23.10;56.60
23769;DHT22;12064;50.890;5.424;2023-02-28T09:24:06;23.00;57.40
23769;DHT22;12064;50.890;5.424;2023-02-28T09:33:02;23.20;55.40
23769;DHT22;12064;50.890;5.424;2023-02-28T09:41:54;23.00;57.10
23769;DHT22;12064;50.890;5.424;2023-02-28T09:50:49;23.00;57.50
23769;DHT22;12064;50.890;5.424;2023-02-28T10:17:53;23.10;56.60
23769;DHT22;12064;50.890;5.424;2023-02-28T10:26:46;23.10;56.60
23769;DHT22;12064;50.890;5.424;2023-02-28T10:35:37;22.80;57.10
23769;DHT22;12064;50.890;5.424;2023-02-28T10:44:28;22.10;58.20
23769;DHT22;12064;50.890;5.424;2023-02-28T11:02:34;21.40;59.30
23769;DHT22;12064;50.890;5.424;2023-02-28T11:11:27;21.20;59.50
23769;DHT22;12064;50.890;5.424;2023-02-28T11:20:24;21.10;59.60
23769;DHT22;12064;50.890;5.424;2023-02-28T11:29:21;21.00;59.70
23769;DHT22;12064;50.890;5.424;2023-02-28T11:38:12;21.00;59.70
23769;DHT22;12064;50.890;5.424;2023-02-28T11:47:15;21.10;59.90
23769;DHT22;12064;50.890;5.424;2023-02-28T11:56:32;21.00;60.70
23769;DHT22;12064;50.890;5.424;2023-02-28T12:05:31;20.90;60.30
23769;DHT22;12064;50.890;5.424;2023-02-28T12:23:46;20.70;60.40
23769;DHT22;12064;50.890;5.424;2023-02-28T12:32:44;20.90;60.30
23769;DHT22;12064;50.890;5.424;2023-02-28T12:41:46;20.90;60.20
23769;DHT22;12064;50.890;5.424;2023-02-28T12:50:38;20.80;60.30
23769;DHT22;12064;50.890;5.424;2023-02-28T12:59:44;20.80;60.30
23769;DHT22;12064;50.890;5.424;2023-02-28T13:08:41;20.80;60.00
23769;DHT22;12064;50.890;5.424;2023-02-28T13:17:38;20.80;58.60
23769;DHT22;12064;50.890;5.424;2023-02-28T13:35:37;20.80;58.00
23769;DHT22;12064;50.890;5.424;2023-02-28T13:44:28;20.60;58.90
23769;DHT22;12064;50.890;5.424;2023-02-28T13:53:39;20.70;58.40
23769;DHT22;12064;50.890;5.424;2023-02-28T14:03:06;20.70;58.70
23769;DHT22;12064;50.890;5.424;2023-02-28T14:21:31;20.80;58.70
23769;DHT22;12064;50.890;5.424;2023-02-28T14:39:34;20.60;59.00
23769;DHT22;12064;50.890;5.424;2023-02-28T14:48:28;20.60;59.20
23769;DHT22;12064;50.890;5.424;2023-02-28T14:57:31;20.80;58.90
23769;DHT22;12064;50.890;5.424;2023-02-28T15:06:21;20.70;59.10
23769;DHT22;12064;50.890;5.424;2023-02-28T15:15:17;20.70;59.30
23769;DHT22;12064;50.890;5.424;2023-02-28T15:24:18;20.70;59.30
23769;DHT22;12064;50.890;5.424;2023-02-28T15:33:20;20.70;59.30
23769;DHT22;12064;50.890;5.424;2023-02-28T15:42:20;20.80;59.40
23769;DHT22;12064;50.890;5.424;2023-02-28T15:51:24;20.70;59.70
23769;DHT22;12064;50.890;5.424;2023-02-28T16:00:20;20.80;59.80
23769;DHT22;12064;50.890;5.424;2023-02-28T16:09:16;20.80;59.70
23769;DHT22;12064;50.890;5.424;2023-02-28T16:18:10;20.80;59.60
23769;DHT22;12064;50.890;5.424;2023-02-28T16:27:02;20.70;59.70
23769;DHT22;12064;50.890;5.424;2023-02-28T16:35:52;20.80;59.80
23769;DHT22;12064;50.890;5.424;2023-02-28T16:44:43;20.70;59.80
23769;DHT22;12064;50.890;5.424;2023-02-28T16:53:34;20.80;59.70
23769;DHT22;12064;50.890;5.424;2023-02-28T17:02:24;20.90;59.50
23769;DHT22;12064;50.890;5.424;2023-02-28T17:11:16;20.80;59.60
23769;DHT22;12064;50.890;5.424;2023-02-28T17:30:33;20.80;59.80
23769;DHT22;12064;50.890;5.424;2023-02-28T17:39:20;20.80;59.80
23769;DHT22;12064;50.890;5.424;2023-02-28T17:48:14;20.60;60.60
23769;DHT22;12064;50.890;5.424;2023-02-28T17:57:05;20.60;60.80
23769;DHT22;12064;50.890;5.424;2023-02-28T18:05:56;20.70;60.60
23769;DHT22;12064;50.890;5.424;2023-02-28T18:14:49;20.70;60.60
23769;DHT22;12064;50.890;5.424;2023-02-28T18:23:41;20.60;60.60
23769;DHT22;12064;50.890;5.424;2023-02-28T18:32:37;20.70;60.60
23769;DHT22;12064;50.890;5.424;2023-02-28T18:41:30;20.60;60.90
23769;DHT22;12064;50.890;5.424;2023-02-28T18:50:23;20.80;60.80
23769;DHT22;12064;50.890;5.424;2023-02-28T18:59:14;20.80;60.90
23769;DHT22;12064;50.890;5.424;2023-02-28T19:08:04;21.30;61.80
23769;DHT22;12064;50.890;5.424;2023-02-28T19:16:58;22.40;59.60
23769;DHT22;12064;50.890;5.424;2023-02-28T19:25:49;22.70;59.50
23769;DHT22;12064;50.890;5.424;2023-02-28T19:34:39;22.90;59.50
23769;DHT22;12064;50.890;5.424;2023-02-28T19:43:30;23.10;59.70
23769;DHT22;12064;50.890;5.424;2023-02-28T19:52:21;23.50;59.20
23769;DHT22;12064;50.890;5.424;2023-02-28T20:01:17;23.70;59.20
23769;DHT22;12064;50.890;5.424;2023-02-28T20:10:09;23.70;59.50
23769;DHT22;12064;50.890;5.424;2023-02-28T20:19:03;23.60;60.60
23769;DHT22;12064;50.890;5.424;2023-02-28T20:27:54;23.90;59.50
23769;DHT22;12064;50.890;5.424;2023-02-28T20:36:45;23.90;60.00
23769;DHT22;12064;50.890;5.424;2023-02-28T20:45:36;24.00;59.90
23769;DHT22;12064;50.890;5.424;2023-02-28T20:54:27;24.20;59.70
23769;DHT22;12064;50.890;5.424;2023-02-28T21:03:21;24.00;61.00
23769;DHT22;12064;50.890;5.424;2023-02-28T21:12:15;24.10;60.90
23769;DHT22;12064;50.890;5.424;2023-02-28T21:21:10;24.10;60.70
23769;DHT22;12064;50.890;5.424;2023-02-28T21:30:01;24.00;62.70
23769;DHT22;12064;50.890;5.424;2023-02-28T21:38:58;24.20;61.20
23769;DHT22;12064;50.890;5.424;2023-02-28T21:47:49;23.90;61.30
23769;DHT22;12064;50.890;5.424;2023-02-28T21:56:39;23.80;61.70
23769;DHT22;12064;50.890;5.424;2023-02-28T22:05:30;23.90;61.70
23769;DHT22;12064;50.890;5.424;2023-02-28T22:14:21;23.90;61.60
23769;DHT22;12064;50.890;5.424;2023-02-28T22:23:13;24.00;62.50
23769;DHT22;12064;50.890;5.424;2023-02-28T22:32:06;23.80;62.20
23769;DHT22;12064;50.890;5.424;2023-02-28T22:40:57;23.90;62.30
23769;DHT22;12064;50.890;5.424;2023-02-28T22:49:50;23.70;62.60
23769;DHT22;12064;50.890;5.424;2023-02-28T22:58:52;23.60;62.40
23769;DHT22;12064;50.890;5.424;2023-02-28T23:07:42;23.40;62.40
23769;DHT22;12064;50.890;5.424;2023-02-28T23:16:37;23.50;62.50
23769;DHT22;12064;50.890;5.424;2023-02-28T23:25:27;23.40;62.60
23769;DHT22;12064;50.890;5.424;2023-02-28T23:34:19;23.30;62.40
23769;DHT22;12064;50.890;5.424;2023-02-28T23:43:17;23.10;62.70
23769;DHT22;12064;50.890;5.424;2023-02-28T23:52:09;23.10;62.50
